createdAt,value
2019-02-14T00:02:03.912Z,9.47
2019-02-14T00:12:14.949Z,9.30
2019-02-14T00:17:20.948Z,9.23
2019-02-14T00:22:26.759Z,9.23
2019-02-14T00:27:32.880Z,10.33
2019-02-14T00:32:38.927Z,9.60
2019-02-14T00:37:44.591Z,9.55
2019-02-14T00:42:50.505Z,9.07
2019-02-14T00:53:00.764Z,9.03
2019-02-14T00:58:06.936Z,9.27
2019-02-14T01:03:12.771Z,9.33
2019-02-14T01:08:18.526Z,9.20
2019-02-14T01:13:24.686Z,9.17
2019-02-14T01:18:30.600Z,9.00
2019-02-14T01:28:41.202Z,10.50
2019-02-14T01:33:47.392Z,13.30
2019-02-14T01:38:53.425Z,12.50
2019-02-14T01:43:59.245Z,12.30
2019-02-14T01:49:05.138Z,11.53
2019-02-14T01:54:11.076Z,11.23
2019-02-14T01:59:16.803Z,11.75
2019-02-14T02:04:22.848Z,11.40
2019-02-14T02:09:28.964Z,11.53
2019-02-14T02:14:35.549Z,11.00
2019-02-14T02:19:41.626Z,10.90
2019-02-14T02:24:47.903Z,10.87
2019-02-14T02:29:54.086Z,11.50
2019-02-14T02:35:00.411Z,10.10
2019-02-14T02:40:07.137Z,10.37
2019-02-14T02:45:13.880Z,9.27
2019-02-14T02:50:19.846Z,10.60
2019-02-14T03:00:30.648Z,10.30
2019-02-14T03:05:36.827Z,10.40
2019-02-14T03:10:42.692Z,8.93
2019-02-14T03:15:48.587Z,10.17
2019-02-14T03:20:54.629Z,9.00
2019-02-14T03:26:00.525Z,10.17
2019-02-14T03:31:06.442Z,9.20
2019-02-14T03:36:18.925Z,9.53
2019-02-14T03:41:20.001Z,9.60
2019-02-14T03:46:26.064Z,8.57
2019-02-14T03:51:32.122Z,8.90
2019-02-14T03:56:37.709Z,8.90
2019-02-14T04:01:43.609Z,8.63
2019-02-14T04:06:49.502Z,8.83
2019-02-14T04:11:55.205Z,8.78
2019-02-14T04:22:05.946Z,9.18
2019-02-14T04:32:16.566Z,8.18
2019-02-14T04:37:22.644Z,8.37
2019-02-14T04:42:28.723Z,8.40
2019-02-14T04:47:34.840Z,8.27
2019-02-14T04:52:40.744Z,8.33
2019-02-14T04:57:46.404Z,7.87
2019-02-14T05:02:52.291Z,8.17
2019-02-14T05:07:58.407Z,7.70
2019-02-14T05:13:04.134Z,7.90
2019-02-14T05:23:14.351Z,8.13
2019-02-14T05:28:20.781Z,6.87
2019-02-14T05:33:29.037Z,8.27
2019-02-14T05:38:34.673Z,7.43
2019-02-14T05:43:40.741Z,7.13
2019-02-14T05:48:46.894Z,7.58
2019-02-14T05:53:53.165Z,7.47
2019-02-14T05:58:59.040Z,7.13
2019-02-14T06:04:04.842Z,6.07
2019-02-14T06:09:10.955Z,7.27
2019-02-14T06:14:16.856Z,7.00
2019-02-14T06:19:22.738Z,7.70
2019-02-14T06:24:28.823Z,6.53
2019-02-14T06:29:35.047Z,6.20
2019-02-14T06:34:41.526Z,7.33
2019-02-14T06:39:47.444Z,6.43
2019-02-14T06:44:53.077Z,6.95
2019-02-14T06:49:58.996Z,7.23
2019-02-14T06:55:04.590Z,6.30
2019-02-14T07:00:14.490Z,6.83
2019-02-14T07:05:20.633Z,6.40
2019-02-14T07:10:26.706Z,6.97
2019-02-14T07:15:32.785Z,7.03
2019-02-14T07:20:38.660Z,6.50
2019-02-14T07:25:44.571Z,6.60
2019-02-14T07:30:50.574Z,7.27
2019-02-14T07:35:56.464Z,6.40
2019-02-14T07:41:02.544Z,6.97
2019-02-14T07:46:08.857Z,7.15
2019-02-14T07:51:14.932Z,7.30
2019-02-14T07:56:21.184Z,6.80
2019-02-14T08:01:27.408Z,6.10
2019-02-14T08:06:33.659Z,6.87
2019-02-14T08:11:39.653Z,5.67
2019-02-14T08:16:45.616Z,6.40
2019-02-14T08:26:53.588Z,6.40
2019-02-14T08:31:56.755Z,6.75
2019-02-14T08:36:59.721Z,6.55
2019-02-14T08:42:02.681Z,6.35
2019-02-14T08:47:05.833Z,6.65
2019-02-14T08:52:08.833Z,5.73
2019-02-14T08:57:11.988Z,6.12
2019-02-14T09:02:14.951Z,6.50
2019-02-14T09:07:17.949Z,6.70
2019-02-14T09:12:20.986Z,6.62
2019-02-14T09:17:23.945Z,6.70
2019-02-14T09:22:26.949Z,5.92
2019-02-14T09:27:30.046Z,6.15
2019-02-14T09:32:33.252Z,6.17
2019-02-14T09:37:36.363Z,6.45
2019-02-14T09:42:39.681Z,6.70
2019-02-14T09:47:42.664Z,5.83
2019-02-14T09:52:46.060Z,5.67
2019-02-14T09:57:49.042Z,5.83
2019-02-14T10:02:51.985Z,5.67
2019-02-14T10:07:55.034Z,5.83
2019-02-14T10:12:58.434Z,5.72
2019-02-14T10:18:01.493Z,6.10
2019-02-14T10:23:04.573Z,6.70
2019-02-14T10:28:07.640Z,6.08
2019-02-14T10:33:11.144Z,6.60
2019-02-14T10:38:22.098Z,5.87
2019-02-14T10:43:19.245Z,6.83
2019-02-14T10:48:22.286Z,5.53
2019-02-14T10:53:25.554Z,5.15
2019-02-14T10:58:28.507Z,4.58
2019-02-14T11:03:31.509Z,4.78
2019-02-14T11:08:34.847Z,4.50
2019-02-14T11:13:38.133Z,4.85
2019-02-14T11:18:44.270Z,6.20
2019-02-14T11:23:46.425Z,5.60
2019-02-14T11:28:49.385Z,5.33
2019-02-14T11:33:52.379Z,5.12
2019-02-14T11:38:55.422Z,5.00
2019-02-14T11:43:58.644Z,5.20
2019-02-14T11:49:01.752Z,6.03
2019-02-14T11:54:04.768Z,6.28
2019-02-14T11:59:07.765Z,5.92
2019-02-14T12:04:11.065Z,6.25
2019-02-14T12:09:14.336Z,6.62
2019-02-14T12:14:17.274Z,7.28
2019-02-14T12:19:20.229Z,6.45
2019-02-14T12:24:23.461Z,6.20
2019-02-14T12:29:26.524Z,6.42
2019-02-14T12:34:29.494Z,6.28
2019-02-14T12:39:32.671Z,5.85
2019-02-14T12:44:35.662Z,5.75
2019-02-14T12:49:38.866Z,5.70
2019-02-14T12:54:41.800Z,6.03
2019-02-14T12:59:44.803Z,6.15
2019-02-14T13:04:48.239Z,5.97
2019-02-14T13:09:51.380Z,6.70
2019-02-14T13:14:54.474Z,5.70
2019-02-14T13:19:57.419Z,5.70
2019-02-14T13:25:00.402Z,6.00
2019-02-14T13:30:05.448Z,5.40
2019-02-14T13:35:08.427Z,5.40
2019-02-14T13:40:11.501Z,6.25
2019-02-14T13:45:16.879Z,6.03
2019-02-14T13:50:20.366Z,6.10
2019-02-14T13:55:23.479Z,5.70
2019-02-14T14:00:27.061Z,5.87
2019-02-14T14:05:30.190Z,6.50
2019-02-14T14:10:33.479Z,5.92
2019-02-14T14:15:36.418Z,5.95
2019-02-14T14:20:39.741Z,6.67
2019-02-14T14:25:42.716Z,5.70
2019-02-14T14:30:45.734Z,5.83
2019-02-14T14:35:48.725Z,5.80
2019-02-14T14:40:51.903Z,6.22
2019-02-14T14:46:26.523Z,5.55
2019-02-14T14:51:29.928Z,6.28
2019-02-14T14:56:33.122Z,5.90
2019-02-14T15:01:36.143Z,6.12
2019-02-14T15:06:39.141Z,5.60
2019-02-14T15:11:42.108Z,5.75
2019-02-14T15:16:45.070Z,6.12
2019-02-14T15:21:48.011Z,5.67
2019-02-14T15:26:51.132Z,5.12
2019-02-14T15:31:54.056Z,5.97
2019-02-14T15:36:57.232Z,5.45
2019-02-14T15:42:00.663Z,5.95
2019-02-14T15:47:03.755Z,5.65
2019-02-14T15:52:07.733Z,5.67
2019-02-14T15:57:11.042Z,5.85
2019-02-14T16:02:14.314Z,6.40
2019-02-14T16:07:17.619Z,6.50
2019-02-14T16:12:21.871Z,6.08
2019-02-14T16:17:25.011Z,6.07
2019-02-14T16:22:30.037Z,6.03
2019-02-14T16:27:33.251Z,6.75
2019-02-14T16:32:36.346Z,7.15
2019-02-14T16:37:39.292Z,6.67
2019-02-14T16:42:42.292Z,6.95
2019-02-14T16:47:45.331Z,7.10
2019-02-14T16:52:48.435Z,7.35
2019-02-14T16:57:51.418Z,7.17
2019-02-14T17:02:54.618Z,7.60
2019-02-14T17:07:58.133Z,7.83
2019-02-14T17:13:01.408Z,7.50
2019-02-14T17:18:04.353Z,8.93
2019-02-14T17:23:07.442Z,9.35
2019-02-14T17:28:10.415Z,9.58
2019-02-14T17:33:13.422Z,11.40
2019-02-14T17:38:16.430Z,12.28
2019-02-14T17:43:19.414Z,12.75
2019-02-14T17:48:22.407Z,13.33
2019-02-14T17:53:25.437Z,14.28
2019-02-14T17:58:28.406Z,14.15
2019-02-14T18:03:31.347Z,14.93
2019-02-14T18:08:34.785Z,15.46
2019-02-14T18:13:37.857Z,16.10
2019-02-14T18:18:41.077Z,16.60
2019-02-14T18:23:44.070Z,16.07
2019-02-14T18:28:47.038Z,16.62
2019-02-14T18:33:50.164Z,17.10
2019-02-14T18:38:53.111Z,17.27
2019-02-14T18:43:56.276Z,17.57
2019-02-14T18:48:59.393Z,16.90
2019-02-14T18:54:02.799Z,17.13
2019-02-14T18:59:05.794Z,17.12
2019-02-14T19:04:08.770Z,16.32
2019-02-14T19:09:12.320Z,16.80
2019-02-14T19:14:15.282Z,16.87
2019-02-14T19:19:18.426Z,17.67
2019-02-14T19:24:21.578Z,17.20
2019-02-14T19:29:24.611Z,16.85
2019-02-14T19:34:27.589Z,16.10
2019-02-14T19:39:30.815Z,16.87
2019-02-14T19:44:33.770Z,16.05
2019-02-14T19:49:36.764Z,16.87
2019-02-14T19:54:40.115Z,15.75
2019-02-14T19:59:43.197Z,15.30
2019-02-14T20:04:46.269Z,16.70
2019-02-14T20:09:49.721Z,15.95
2019-02-14T20:14:53.186Z,15.93
2019-02-14T20:19:56.240Z,15.35
2019-02-14T20:24:59.248Z,16.27
2019-02-14T20:30:02.866Z,17.27
2019-02-14T20:35:05.877Z,17.07
2019-02-14T20:40:09.060Z,16.97
2019-02-14T20:45:12.332Z,17.60
2019-02-14T20:50:15.769Z,15.98
2019-02-14T20:55:18.924Z,16.77
2019-02-14T21:00:27.724Z,17.57
2019-02-14T21:05:30.876Z,17.00
2019-02-14T21:10:34.122Z,17.12
2019-02-14T21:15:37.222Z,18.17
2019-02-14T21:20:40.318Z,16.93
2019-02-14T21:25:43.461Z,17.75
2019-02-14T21:30:46.412Z,17.82
2019-02-14T21:35:51.232Z,18.42
2019-02-14T21:40:54.283Z,18.07
2019-02-14T21:45:57.320Z,18.20
2019-02-14T21:51:00.824Z,18.12
2019-02-14T21:56:04.318Z,18.20
2019-02-14T22:01:08.374Z,19.67
2019-02-14T22:06:11.493Z,18.92
2019-02-14T22:11:14.481Z,18.15
2019-02-14T22:16:17.583Z,18.45
2019-02-14T22:21:20.645Z,18.35
2019-02-14T22:26:23.755Z,17.92
2019-02-14T22:31:26.717Z,17.73
2019-02-14T22:36:29.993Z,17.80
2019-02-14T22:41:33.080Z,18.48
2019-02-14T22:46:36.138Z,17.98
2019-02-14T22:51:39.080Z,17.50
2019-02-14T22:56:42.235Z,16.93
2019-02-14T23:01:45.590Z,17.30
2019-02-14T23:06:48.536Z,19.95
2019-02-14T23:11:52.164Z,19.35
2019-02-14T23:16:55.238Z,21.05
2019-02-14T23:21:58.279Z,57.00
2019-02-14T23:27:01.277Z,51.75
2019-02-14T23:32:04.564Z,41.87
2019-02-14T23:37:07.505Z,37.83
2019-02-14T23:42:10.630Z,33.92
2019-02-14T23:47:13.608Z,32.20
2019-02-14T23:52:16.693Z,30.88
2019-02-14T23:57:19.645Z,31.68
